Time;durP1;ratioP1;P1;durP2;ratioP2;P2;SDS_P1;SDS_P2;PMS_P1;PMS_P2;Temp;Humidity;BMP_temperature;BMP_pressure;BME280_temperature;BME280_humidity;BME280_pressure;Samples;Min_cycle;Max_cycle;Signal;HPM_P1;HPM_P2
2024/02/18 00:00:01;;;;;;;10.40;6.60;;;;;;;;;;5036372;28;20060;-52
2024/02/18 00:02:27;;;;;;;10.10;6.00;;;;;;;;;;5039188;28;20049;-53
2024/02/18 00:04:53;;;;;;;10.45;6.15;;;;;;;;;;5037213;28;20583;-54
2024/02/18 00:07:20;;;;;;;10.40;6.10;;;;;;;;;;5038699;28;20474;-55
2024/02/18 00:09:46;;;;;;;10.45;6.18;;;;;;;;;;5037263;28;20018;-51
2024/02/18 00:12:13;;;;;;;9.90;5.85;;;;;;;;;;5036860;28;20031;-50
2024/02/18 00:14:39;;;;;;;10.30;6.00;;;;;;;;;;5038377;28;20017;-52
2024/02/18 00:17:05;;;;;;;10.48;6.18;;;;;;;;;;5036959;28;20025;-52
2024/02/18 00:19:32;;;;;;;10.27;6.03;;;;;;;;;;5037092;28;20031;-51
2024/02/18 00:21:58;;;;;;;10.75;6.30;;;;;;;;;;5038169;28;20025;-53
2024/02/18 00:24:24;;;;;;;10.52;6.20;;;;;;;;;;5036763;28;20036;-58
2024/02/18 00:26:51;;;;;;;10.80;6.32;;;;;;;;;;5037252;28;20441;-53
2024/02/18 00:29:17;;;;;;;11.00;6.70;;;;;;;;;;5038268;28;20128;-54
2024/02/18 00:31:43;;;;;;;10.60;6.20;;;;;;;;;;5036437;28;20112;-53
2024/02/18 00:34:09;;;;;;;10.80;6.30;;;;;;;;;;5036207;28;20104;-51
2024/02/18 00:36:36;;;;;;;10.52;6.20;;;;;;;;;;4322194;28;10000570;-51
2024/02/18 00:39:02;;;;;;;10.60;6.20;;;;;;;;;;5008113;28;20051;-56
2024/02/18 00:41:28;;;;;;;10.40;6.45;;;;;;;;;;5010084;28;20032;-59
2024/02/18 00:43:54;;;;;;;10.30;6.00;;;;;;;;;;5027604;28;20538;-56
2024/02/18 00:46:20;;;;;;;10.20;6.03;;;;;;;;;;5052499;23;20030;-54
2024/02/18 00:48:46;;;;;;;11.13;6.65;;;;;;;;;;5042180;28;20045;-53
2024/02/18 00:51:12;;;;;;;10.38;6.10;;;;;;;;;;5028664;28;20440;-52
2024/02/18 00:53:38;;;;;;;10.70;6.30;;;;;;;;;;5028442;28;20079;-55
2024/02/18 00:56:04;;;;;;;10.43;6.13;;;;;;;;;;5031216;28;20025;-53
2024/02/18 00:58:30;;;;;;;10.23;6.10;;;;;;;;;;5032333;28;20033;-51
2024/02/18 01:00:56;;;;;;;10.68;6.28;;;;;;;;;;5032219;28;20091;-53
2024/02/18 01:03:22;;;;;;;10.90;6.50;;;;;;;;;;5032024;28;20586;-54
2024/02/18 01:05:48;;;;;;;12.57;8.57;;;;;;;;;;5032933;28;20029;-54
2024/02/18 01:08:14;;;;;;;11.00;6.45;;;;;;;;;;5033078;28;20376;-51
2024/02/18 01:10:40;;;;;;;11.38;6.75;;;;;;;;;;5031785;28;20021;-55
2024/02/18 01:13:06;;;;;;;11.45;7.15;;;;;;;;;;5032708;28;20071;-55
2024/02/18 01:15:32;;;;;;;11.13;6.50;;;;;;;;;;5031598;28;20076;-53
2024/02/18 01:17:58;;;;;;;11.45;6.78;;;;;;;;;;5032836;28;20029;-54
2024/02/18 01:20:24;;;;;;;11.15;6.55;;;;;;;;;;5032996;28;20056;-55
2024/02/18 01:22:50;;;;;;;11.00;6.50;;;;;;;;;;5032683;28;20033;-54
2024/02/18 01:25:16;;;;;;;11.70;6.88;;;;;;;;;;5032656;28;20026;-49
2024/02/18 01:27:42;;;;;;;11.40;6.70;;;;;;;;;;5032666;28;20033;-51
2024/02/18 01:30:08;;;;;;;11.50;6.90;;;;;;;;;;5032747;28;20028;-51
2024/02/18 01:32:34;;;;;;;11.63;6.80;;;;;;;;;;5031045;28;20026;-55
2024/02/18 01:35:00;;;;;;;11.82;7.20;;;;;;;;;;5032420;28;20148;-53
2024/02/18 01:37:26;;;;;;;11.80;6.90;;;;;;;;;;5031913;28;20503;-54
2024/02/18 01:39:52;;;;;;;11.73;6.82;;;;;;;;;;5052444;28;20028;-53
2024/02/18 01:42:18;;;;;;;11.73;6.88;;;;;;;;;;5052143;28;20458;-55
2024/02/18 01:44:45;;;;;;;12.30;7.40;;;;;;;;;;5052154;28;20048;-54
2024/02/18 01:47:11;;;;;;;12.02;7.57;;;;;;;;;;5051870;28;20558;-55
2024/02/18 01:49:38;;;;;;;11.57;6.80;;;;;;;;;;5052117;28;20083;-53
2024/02/18 01:52:04;;;;;;;16.83;9.95;;;;;;;;;;5050724;28;20457;-53
2024/02/18 01:54:33;;;;;;;11.70;7.00;;;;;;;;;;5052001;28;20028;-55
2024/02/18 01:57:00;;;;;;;11.55;6.72;;;;;;;;;;5051830;28;20487;-54
2024/02/18 01:59:26;;;;;;;11.85;7.00;;;;;;;;;;5051889;28;20029;-57
2024/02/18 02:01:52;;;;;;;12.00;7.43;;;;;;;;;;5051695;28;20021;-54
2024/02/18 02:04:18;;;;;;;11.23;6.60;;;;;;;;;;5051862;28;20048;-53
2024/02/18 02:06:44;;;;;;;11.00;6.50;;;;;;;;;;5051613;28;20143;-52
2024/02/18 02:09:11;;;;;;;10.90;6.40;;;;;;;;;;5052011;28;20536;-53
2024/02/18 02:11:38;;;;;;;10.90;6.40;;;;;;;;;;5051913;28;20033;-55
2024/02/18 02:14:04;;;;;;;11.35;7.63;;;;;;;;;;5051660;28;20013;-56
2024/02/18 02:16:30;;;;;;;12.10;8.30;;;;;;;;;;5051742;28;20372;-53
2024/02/18 02:18:57;;;;;;;11.15;6.50;;;;;;;;;;5031167;28;20037;-50
2024/02/18 02:21:23;;;;;;;11.30;6.60;;;;;;;;;;5031823;28;20087;-52
2024/02/18 02:23:50;;;;;;;10.90;6.40;;;;;;;;;;5031669;28;20022;-50
2024/02/18 02:26:16;;;;;;;10.77;6.38;;;;;;;;;;5031555;28;20021;-54
2024/02/18 02:28:52;;;;;;;10.75;6.35;;;;;;;;;;5031772;28;20027;-57
2024/02/18 02:31:18;;;;;;;10.60;6.20;;;;;;;;;;5031654;28;20029;-55
2024/02/18 02:33:45;;;;;;;11.43;6.70;;;;;;;;;;5031722;28;20115;-52
2024/02/18 02:36:11;;;;;;;11.05;6.47;;;;;;;;;;5031617;28;20029;-53
2024/02/18 02:38:37;;;;;;;11.10;6.50;;;;;;;;;;5031531;28;20617;-51
2024/02/18 02:41:04;;;;;;;11.05;6.50;;;;;;;;;;5031602;28;20026;-54
2024/02/18 02:43:30;;;;;;;10.93;6.60;;;;;;;;;;5029828;28;20044;-52
2024/02/18 02:45:56;;;;;;;10.90;6.88;;;;;;;;;;5031228;28;20464;-52
2024/02/18 02:48:22;;;;;;;10.55;6.20;;;;;;;;;;5031052;28;20115;-51
2024/02/18 02:50:48;;;;;;;10.32;6.10;;;;;;;;;;5029801;28;20112;-53
2024/02/18 02:53:14;;;;;;;10.48;6.18;;;;;;;;;;5030997;28;20033;-56
2024/02/18 02:55:40;;;;;;;10.70;6.30;;;;;;;;;;5029670;28;20033;-52
2024/02/18 02:58:06;;;;;;;10.90;6.40;;;;;;;;;;5030891;28;20415;-52
2024/02/18 03:00:32;;;;;;;10.88;6.38;;;;;;;;;;5030810;28;20030;-54
2024/02/18 03:02:58;;;;;;;11.43;6.70;;;;;;;;;;5030529;28;20052;-54
2024/02/18 03:05:24;;;;;;;11.30;7.10;;;;;;;;;;5030688;28;20419;-52
2024/02/18 03:07:50;;;;;;;10.98;6.45;;;;;;;;;;5029360;28;20032;-54
2024/02/18 03:10:16;;;;;;;10.82;6.40;;;;;;;;;;5030714;28;20144;-50
2024/02/18 03:12:42;;;;;;;11.32;6.63;;;;;;;;;;5030450;28;20075;-54
2024/02/18 03:15:09;;;;;;;11.10;6.50;;;;;;;;;;5030437;28;20029;-50
2024/02/18 03:17:37;;;;;;;11.55;6.75;;;;;;;;;;5030206;28;20130;-54
2024/02/18 03:20:07;;;;;;;11.38;6.65;;;;;;;;;;5030399;28;20664;-53
2024/02/18 03:22:34;;;;;;;11.13;6.50;;;;;;;;;;5029032;28;20022;-55
2024/02/18 03:25:00;;;;;;;11.90;7.10;;;;;;;;;;5030334;28;20021;-53
2024/02/18 03:27:26;;;;;;;10.98;6.45;;;;;;;;;;5030356;28;20407;-54
2024/02/18 03:29:52;;;;;;;11.65;6.90;;;;;;;;;;5029134;28;20104;-57
2024/02/18 03:32:18;;;;;;;11.35;6.60;;;;;;;;;;5029106;28;20021;-51
2024/02/18 03:34:44;;;;;;;11.77;6.90;;;;;;;;;;5030348;28;20033;-49
2024/02/18 03:37:10;;;;;;;11.52;6.78;;;;;;;;;;5030256;28;20033;-49
2024/02/18 03:39:36;;;;;;;11.32;6.65;;;;;;;;;;5029033;28;20032;-51
2024/02/18 03:42:02;;;;;;;11.25;6.70;;;;;;;;;;5030254;28;20025;-51
2024/02/18 03:44:28;;;;;;;11.07;6.50;;;;;;;;;;5030488;28;20057;-53
2024/02/18 03:46:54;;;;;;;10.77;6.32;;;;;;;;;;5030213;28;20093;-53
2024/02/18 03:49:20;;;;;;;10.57;6.20;;;;;;;;;;5030716;28;20022;-51
2024/02/18 03:51:46;;;;;;;11.60;6.95;;;;;;;;;;5030260;28;20022;-48
2024/02/18 03:54:13;;;;;;;11.02;6.50;;;;;;;;;;5029406;28;20082;-55
2024/02/18 03:56:39;;;;;;;10.90;6.40;;;;;;;;;;5030257;28;20491;-49
2024/02/18 03:59:08;;;;;;;13.60;10.65;;;;;;;;;;5029711;28;20061;-51
2024/02/18 04:01:34;;;;;;;10.65;6.30;;;;;;;;;;5030959;28;20029;-49
2024/02/18 04:04:00;;;;;;;11.20;6.60;;;;;;;;;;5030596;28;20029;-50
2024/02/18 04:06:26;;;;;;;11.02;6.47;;;;;;;;;;5029209;28;20391;-51
2024/02/18 04:08:52;;;;;;;11.10;6.50;;;;;;;;;;5030379;28;20025;-54
2024/02/18 04:11:18;;;;;;;10.90;6.40;;;;;;;;;;5028762;28;20030;-51
2024/02/18 04:13:44;;;;;;;10.73;6.30;;;;;;;;;;5030192;28;20043;-53
2024/02/18 04:16:10;;;;;;;10.82;6.30;;;;;;;;;;5029897;28;20032;-52
2024/02/18 04:18:36;;;;;;;12.02;8.23;;;;;;;;;;5029845;28;20025;-52
2024/02/18 04:21:02;;;;;;;11.00;6.40;;;;;;;;;;5029819;28;20044;-52
2024/02/18 04:23:28;;;;;;;10.60;6.30;;;;;;;;;;5029613;28;20026;-55
2024/02/18 04:25:54;;;;;;;11.15;6.50;;;;;;;;;;5029643;28;20032;-54
2024/02/18 04:28:20;;;;;;;10.65;6.30;;;;;;;;;;5028458;28;20464;-55
2024/02/18 04:30:46;;;;;;;10.90;6.40;;;;;;;;;;5032484;28;20025;-56
2024/02/18 04:33:12;;;;;;;10.40;6.15;;;;;;;;;;5033674;28;20487;-54
2024/02/18 04:35:38;;;;;;;11.43;6.45;;;;;;;;;;5032383;28;20021;-51
2024/02/18 04:38:04;;;;;;;11.15;6.55;;;;;;;;;;5033506;28;20030;-54
2024/02/18 04:40:30;;;;;;;11.10;6.50;;;;;;;;;;5032361;28;20029;-54
2024/02/18 04:42:56;;;;;;;10.80;6.32;;;;;;;;;;5033499;28;20160;-55
2024/02/18 04:45:22;;;;;;;10.88;6.38;;;;;;;;;;5033574;28;20471;-52
2024/02/18 04:47:48;;;;;;;10.57;6.20;;;;;;;;;;5033397;28;20048;-49
2024/02/18 04:50:14;;;;;;;11.38;6.43;;;;;;;;;;5033669;28;20037;-51
2024/02/18 04:52:40;;;;;;;11.00;6.40;;;;;;;;;;5031954;28;20037;-49
2024/02/18 04:55:06;;;;;;;10.93;6.40;;;;;;;;;;5032273;28;20032;-51
2024/02/18 04:57:33;;;;;;;12.00;7.25;;;;;;;;;;5032474;28;20153;-51
2024/02/18 04:59:59;;;;;;;10.70;6.28;;;;;;;;;;5033651;28;20033;-50
2024/02/18 05:02:25;;;;;;;10.68;6.43;;;;;;;;;;5033279;28;20092;-52
2024/02/18 05:04:51;;;;;;;10.70;6.25;;;;;;;;;;5032427;28;20470;-51
2024/02/18 05:07:17;;;;;;;11.00;6.40;;;;;;;;;;5033328;28;20038;-54
2024/02/18 05:09:43;;;;;;;11.10;6.70;;;;;;;;;;5033258;28;20047;-55
2024/02/18 05:12:09;;;;;;;10.80;6.30;;;;;;;;;;5032892;28;20032;-53
2024/02/18 05:14:35;;;;;;;10.73;6.30;;;;;;;;;;5033033;28;20032;-53
2024/02/18 05:17:01;;;;;;;10.68;6.30;;;;;;;;;;5032912;28;20025;-51
2024/02/18 05:19:27;;;;;;;11.10;6.50;;;;;;;;;;5032999;28;20025;-55
2024/02/18 05:21:53;;;;;;;10.57;6.30;;;;;;;;;;5032754;28;20040;-54
2024/02/18 05:24:19;;;;;;;10.50;6.18;;;;;;;;;;5033030;28;20033;-54
2024/02/18 05:26:45;;;;;;;10.52;6.20;;;;;;;;;;5031243;28;20069;-52
2024/02/18 05:29:11;;;;;;;11.35;6.50;;;;;;;;;;5032847;28;20074;-54
2024/02/18 05:31:37;;;;;;;11.15;6.50;;;;;;;;;;5032719;28;20557;-52
2024/02/18 05:34:03;;;;;;;11.45;6.70;;;;;;;;;;5032750;28;20483;-51
2024/02/18 05:36:30;;;;;;;10.77;6.30;;;;;;;;;;5032615;28;20230;-54
2024/02/18 05:38:56;;;;;;;10.85;6.35;;;;;;;;;;5032400;28;20136;-53
2024/02/18 05:41:22;;;;;;;12.50;6.70;;;;;;;;;;5032204;28;20028;-55
2024/02/18 05:43:48;;;;;;;11.10;6.50;;;;;;;;;;5031301;28;20075;-53
2024/02/18 05:46:14;;;;;;;11.05;6.47;;;;;;;;;;5032575;28;20033;-51
2024/02/18 05:48:40;;;;;;;10.70;6.30;;;;;;;;;;5032365;28;20116;-50
2024/02/18 05:51:06;;;;;;;10.40;6.13;;;;;;;;;;5032507;28;20056;-52
2024/02/18 05:53:33;;;;;;;10.80;6.32;;;;;;;;;;5032333;28;20449;-55
2024/02/18 05:55:59;;;;;;;11.23;6.50;;;;;;;;;;5032325;28;20040;-55
2024/02/18 05:58:25;;;;;;;11.00;6.50;;;;;;;;;;5032199;28;20025;-53
2024/02/18 06:00:51;;;;;;;9.80;5.80;;;;;;;;;;5032070;28;20025;-55
2024/02/18 06:03:17;;;;;;;10.30;6.03;;;;;;;;;;5030745;28;20028;-52
2024/02/18 06:05:43;;;;;;;10.50;6.15;;;;;;;;;;5032142;28;20026;-54
2024/02/18 06:08:09;;;;;;;10.07;5.97;;;;;;;;;;5031985;28;20029;-54
2024/02/18 06:10:35;;;;;;;10.50;6.20;;;;;;;;;;5030770;28;20021;-53
2024/02/18 06:13:01;;;;;;;10.10;6.00;;;;;;;;;;5031705;28;20121;-54
2024/02/18 06:15:27;;;;;;;10.15;6.00;;;;;;;;;;5031845;28;20108;-57
2024/02/18 06:17:57;;;;;;;10.25;6.10;;;;;;;;;;5031862;28;20026;-55
2024/02/18 06:20:24;;;;;;;10.50;6.20;;;;;;;;;;5032124;28;20021;-50
2024/02/18 06:22:50;;;;;;;10.82;6.35;;;;;;;;;;5031542;28;20379;-53
2024/02/18 06:25:16;;;;;;;10.90;6.40;;;;;;;;;;5031549;28;20032;-55
2024/02/18 06:27:42;;;;;;;11.00;6.50;;;;;;;;;;5031728;28;20049;-55
2024/02/18 06:30:08;;;;;;;10.68;6.30;;;;;;;;;;5032153;28;20395;-53
2024/02/18 06:32:35;;;;;;;10.23;6.00;;;;;;;;;;5031376;28;20438;-55
2024/02/18 06:35:01;;;;;;;10.60;6.30;;;;;;;;;;5031604;28;20032;-53
2024/02/18 06:37:27;;;;;;;10.25;6.03;;;;;;;;;;5030114;28;20071;-52
2024/02/18 06:39:53;;;;;;;10.13;6.00;;;;;;;;;;5031441;28;20025;-52
2024/02/18 06:42:19;;;;;;;10.20;6.00;;;;;;;;;;5031074;28;20026;-53
2024/02/18 06:44:45;;;;;;;9.90;5.80;;;;;;;;;;5030010;28;20484;-52
2024/02/18 06:47:12;;;;;;;10.25;6.00;;;;;;;;;;5047158;22;20385;-58
2024/02/18 06:49:38;;;;;;;10.50;6.10;;;;;;;;;;5049921;28;20041;-54
2024/02/18 06:52:04;;;;;;;9.63;5.70;;;;;;;;;;5048929;28;20021;-55
2024/02/18 06:54:30;;;;;;;10.05;5.90;;;;;;;;;;5049544;28;20060;-57
2024/02/18 06:56:56;;;;;;;10.75;6.30;;;;;;;;;;5049560;28;20052;-56
2024/02/18 06:59:22;;;;;;;10.88;6.30;;;;;;;;;;5049708;28;20025;-56
2024/02/18 07:01:48;;;;;;;10.10;6.00;;;;;;;;;;5049568;28;20035;-57
2024/02/18 07:04:14;;;;;;;11.40;6.13;;;;;;;;;;5049631;28;20468;-56
2024/02/18 07:06:40;;;;;;;10.20;6.00;;;;;;;;;;5049370;28;20029;-56
2024/02/18 07:09:06;;;;;;;9.65;5.70;;;;;;;;;;5049458;28;20033;-57
2024/02/18 07:11:32;;;;;;;9.93;6.10;;;;;;;;;;5049278;28;20021;-56
2024/02/18 07:13:58;;;;;;;10.40;6.00;;;;;;;;;;5049552;28;20025;-56
2024/02/18 07:16:24;;;;;;;10.98;6.30;;;;;;;;;;5049906;28;20028;-52
2024/02/18 07:18:50;;;;;;;9.93;6.00;;;;;;;;;;5049748;28;20043;-55
2024/02/18 07:21:16;;;;;;;10.30;6.20;;;;;;;;;;5048228;28;20402;-54
2024/02/18 07:23:42;;;;;;;9.82;5.82;;;;;;;;;;5047941;28;20021;-56
2024/02/18 07:26:13;;;;;;;10.85;6.68;;;;;;;;;;5049270;28;20561;-55
2024/02/18 07:28:40;;;;;;;10.52;6.45;;;;;;;;;;5049193;28;20486;-53
2024/02/18 07:31:06;;;;;;;10.35;6.20;;;;;;;;;;5049232;28;20048;-59
2024/02/18 07:33:32;;;;;;;10.30;6.10;;;;;;;;;;5049149;28;20110;-56
2024/02/18 07:35:58;;;;;;;10.25;6.10;;;;;;;;;;5049369;28;20239;-56
2024/02/18 07:38:24;;;;;;;10.20;6.00;;;;;;;;;;5049228;28;20024;-55
2024/02/18 07:40:50;;;;;;;10.48;6.20;;;;;;;;;;5049295;28;20029;-58
2024/02/18 07:43:16;;;;;;;11.60;6.80;;;;;;;;;;5048797;28;20047;-59
2024/02/18 07:45:42;;;;;;;11.88;6.80;;;;;;;;;;5048999;28;20025;-57
2024/02/18 07:48:09;;;;;;;11.75;6.95;;;;;;;;;;5048828;28;20040;-59
2024/02/18 07:50:36;;;;;;;11.98;7.00;;;;;;;;;;5047552;28;20020;-54
2024/02/18 07:53:03;;;;;;;11.88;6.97;;;;;;;;;;5047387;28;20031;-56
2024/02/18 07:55:31;;;;;;;13.40;8.83;;;;;;;;;;5049089;28;20045;-55
2024/02/18 07:57:57;;;;;;;12.93;7.60;;;;;;;;;;5048765;28;20045;-52
2024/02/18 08:00:23;;;;;;;13.70;8.20;;;;;;;;;;5048824;28;20279;-56
2024/02/18 08:02:49;;;;;;;15.23;8.20;;;;;;;;;;5047225;28;20029;-57
2024/02/18 08:05:15;;;;;;;13.30;8.05;;;;;;;;;;5048510;28;20380;-54
2024/02/18 08:07:41;;;;;;;18.40;9.35;;;;;;;;;;5048711;28;20032;-58
2024/02/18 08:10:07;;;;;;;13.35;7.90;;;;;;;;;;5048748;28;20165;-54
2024/02/18 08:12:33;;;;;;;13.38;7.95;;;;;;;;;;5048618;28;20103;-53
2024/02/18 08:14:59;;;;;;;15.25;8.95;;;;;;;;;;5048751;28;20118;-58
2024/02/18 08:17:25;;;;;;;13.35;8.07;;;;;;;;;;5047310;28;20029;-58
2024/02/18 08:19:51;;;;;;;13.48;8.65;;;;;;;;;;5048608;28;20075;-55
2024/02/18 08:22:17;;;;;;;13.68;9.00;;;;;;;;;;5048326;28;20033;-57
2024/02/18 08:24:43;;;;;;;14.60;11.90;;;;;;;;;;5048527;28;20021;-55
2024/02/18 08:27:10;;;;;;;19.15;17.35;;;;;;;;;;5048443;28;20449;-54
2024/02/18 08:29:37;;;;;;;20.08;18.27;;;;;;;;;;5048347;28;20021;-55
2024/02/18 08:32:03;;;;;;;20.58;18.73;;;;;;;;;;5047169;28;20021;-52
2024/02/18 08:34:29;;;;;;;20.33;18.50;;;;;;;;;;5048428;28;20075;-56
2024/02/18 08:36:56;;;;;;;21.42;19.52;;;;;;;;;;5048522;28;20025;-54
2024/02/18 08:39:22;;;;;;;22.52;20.58;;;;;;;;;;5047145;28;20029;-53
2024/02/18 08:41:50;;;;;;;28.33;25.92;;;;;;;;;;5048289;28;20064;-54
2024/02/18 08:44:16;;;;;;;26.98;24.77;;;;;;;;;;5048373;28;20109;-58
2024/02/18 08:46:43;;;;;;;27.20;25.00;;;;;;;;;;5045580;28;20109;-54
2024/02/18 08:49:09;;;;;;;26.88;24.67;;;;;;;;;;5035788;28;20495;-49
2024/02/18 08:51:38;;;;;;;27.95;25.65;;;;;;;;;;5039170;28;20021;-51
2024/02/18 08:54:05;;;;;;;26.80;24.60;;;;;;;;;;5028380;28;20021;-50
2024/02/18 08:56:31;;;;;;;27.13;24.92;;;;;;;;;;5041699;28;20048;-49
2024/02/18 08:58:57;;;;;;;46.45;43.35;;;;;;;;;;5048154;28;20604;-53
2024/02/18 09:01:23;;;;;;;27.60;25.40;;;;;;;;;;5046714;28;20064;-51
2024/02/18 09:03:49;;;;;;;28.13;25.83;;;;;;;;;;5043277;28;20029;-51
2024/02/18 09:06:15;;;;;;;26.25;24.15;;;;;;;;;;5028090;28;20470;-49
2024/02/18 09:08:42;;;;;;;25.02;22.98;;;;;;;;;;5028051;28;20089;-49
2024/02/18 09:11:08;;;;;;;24.77;22.77;;;;;;;;;;5027999;28;20025;-51
2024/02/18 09:13:34;;;;;;;24.55;22.55;;;;;;;;;;5030951;28;20171;-51
2024/02/18 09:16:00;;;;;;;24.40;22.40;;;;;;;;;;5028934;28;20073;-51
2024/02/18 09:18:26;;;;;;;23.88;21.88;;;;;;;;;;5040573;28;20120;-47
2024/02/18 09:20:52;;;;;;;24.27;22.27;;;;;;;;;;5042410;28;20107;-52
2024/02/18 09:23:18;;;;;;;24.23;22.23;;;;;;;;;;5051249;28;20103;-54
2024/02/18 09:25:44;;;;;;;24.83;22.73;;;;;;;;;;5051606;28;20021;-52
2024/02/18 09:28:10;;;;;;;24.48;22.48;;;;;;;;;;5050254;28;20053;-51
2024/02/18 09:30:39;;;;;;;24.63;22.52;;;;;;;;;;5051299;28;20096;-55
2024/02/18 09:33:08;;;;;;;25.55;23.45;;;;;;;;;;5051013;28;20040;-54
2024/02/18 09:35:34;;;;;;;24.50;22.50;;;;;;;;;;5051237;28;20120;-51
2024/02/18 09:38:00;;;;;;;24.30;22.30;;;;;;;;;;5049823;28;20064;-50
2024/02/18 09:40:26;;;;;;;29.23;26.60;;;;;;;;;;5051316;28;20025;-52
2024/02/18 09:42:54;;;;;;;24.65;22.65;;;;;;;;;;5051964;28;20376;-53
2024/02/18 09:45:25;;;;;;;25.17;23.08;;;;;;;;;;5051560;28;20051;-55
2024/02/18 09:47:52;;;;;;;24.45;22.45;;;;;;;;;;5051341;28;20029;-53
2024/02/18 09:50:18;;;;;;;25.13;23.02;;;;;;;;;;5051658;28;20029;-54
2024/02/18 09:52:44;;;;;;;25.08;23.08;;;;;;;;;;5051307;28;20028;-54
2024/02/18 09:55:11;;;;;;;24.95;22.88;;;;;;;;;;5051022;28;20021;-54
2024/02/18 09:57:40;;;;;;;25.05;23.05;;;;;;;;;;5050699;28;20029;-54
2024/02/18 10:00:10;;;;;;;24.20;22.20;;;;;;;;;;5050749;28;20033;-53
2024/02/18 10:02:36;;;;;;;25.50;23.40;;;;;;;;;;5050577;28;20100;-47
2024/02/18 10:05:03;;;;;;;22.65;20.65;;;;;;;;;;5050892;28;20017;-55
2024/02/18 10:07:30;;;;;;;21.98;20.08;;;;;;;;;;5050912;28;20045;-55
2024/02/18 10:09:57;;;;;;;21.65;19.75;;;;;;;;;;5050941;28;20017;-52
2024/02/18 10:12:23;;;;;;;21.95;20.05;;;;;;;;;;5048849;28;20021;-55
2024/02/18 10:15:01;;;;;;;22.27;20.38;;;;;;;;;;5049284;28;20032;-53
2024/02/18 10:17:27;;;;;;;21.90;20.00;;;;;;;;;;5049951;28;20104;-53
2024/02/18 10:19:53;;;;;;;21.70;19.80;;;;;;;;;;5049891;28;20029;-52
2024/02/18 10:22:22;;;;;;;21.45;19.55;;;;;;;;;;5049685;28;20025;-53
2024/02/18 10:24:52;;;;;;;22.20;20.30;;;;;;;;;;5050171;28;20102;-54
2024/02/18 10:27:18;;;;;;;21.20;19.30;;;;;;;;;;5047693;28;20025;-54
2024/02/18 10:29:45;;;;;;;20.67;18.77;;;;;;;;;;5050194;28;20460;-53
2024/02/18 10:32:11;;;;;;;20.25;18.45;;;;;;;;;;5048493;28;20028;-52
2024/02/18 10:34:37;;;;;;;20.52;18.63;;;;;;;;;;5050097;28;20025;-54
2024/02/18 10:37:08;;;;;;;20.95;19.05;;;;;;;;;;5049880;28;20075;-54
2024/02/18 10:39:35;;;;;;;20.30;18.50;;;;;;;;;;5048770;28;20047;-55
2024/02/18 10:42:10;;;;;;;20.88;18.98;;;;;;;;;;5049822;28;20168;-50
2024/02/18 10:44:36;;;;;;;20.88;18.98;;;;;;;;;;5049922;28;20029;-55
2024/02/18 10:47:04;;;;;;;21.35;19.45;;;;;;;;;;5049617;28;20051;-53
2024/02/18 10:49:37;;;;;;;21.57;19.67;;;;;;;;;;5048499;28;20029;-55
2024/02/18 10:52:09;;;;;;;21.85;19.95;;;;;;;;;;5049695;28;20100;-54
2024/02/18 10:54:54;;;;;;;21.95;20.05;;;;;;;;;;5048401;28;20036;-51
2024/02/18 10:57:22;;;;;;;21.90;20.00;;;;;;;;;;5049756;28;20270;-55
2024/02/18 11:00:05;;;;;;;22.55;20.65;;;;;;;;;;5049825;28;20491;-56
2024/02/18 11:02:37;;;;;;;22.13;20.23;;;;;;;;;;5049311;28;20885;-52
2024/02/18 11:05:04;;;;;;;21.77;19.88;;;;;;;;;;5049592;28;20032;-52
2024/02/18 11:07:31;;;;;;;21.63;19.73;;;;;;;;;;5049551;28;20411;-53
2024/02/18 11:09:58;;;;;;;23.05;21.05;;;;;;;;;;5049551;28;20041;-50
2024/02/18 11:12:24;;;;;;;23.77;21.77;;;;;;;;;;5047762;28;20017;-53
2024/02/18 11:14:52;;;;;;;30.65;28.25;;;;;;;;;;5049166;28;20495;-51
2024/02/18 11:17:18;;;;;;;30.05;27.65;;;;;;;;;;5049665;28;20025;-52
2024/02/18 11:19:45;;;;;;;29.38;27.08;;;;;;;;;;5049622;28;20033;-53
2024/02/18 11:22:11;;;;;;;29.45;27.15;;;;;;;;;;5049282;28;20495;-54
2024/02/18 11:24:37;;;;;;;28.33;26.02;;;;;;;;;;5048222;28;20115;-52
2024/02/18 11:27:03;;;;;;;28.27;25.98;;;;;;;;;;5049162;28;20494;-53
2024/02/18 11:29:29;;;;;;;28.40;26.10;;;;;;;;;;5047861;28;20087;-50
2024/02/18 11:31:55;;;;;;;28.52;26.23;;;;;;;;;;5048882;28;20081;-53
2024/02/18 11:34:21;;;;;;;28.98;26.63;;;;;;;;;;5048926;28;20071;-54
2024/02/18 11:36:47;;;;;;;27.80;25.50;;;;;;;;;;5048875;28;20179;-53
2024/02/18 11:39:13;;;;;;;26.83;24.63;;;;;;;;;;5048417;28;20025;-54
2024/02/18 11:41:40;;;;;;;26.55;24.35;;;;;;;;;;5048827;28;20055;-52
2024/02/18 11:44:10;;;;;;;26.63;24.42;;;;;;;;;;5047556;28;20032;-53
2024/02/18 11:46:38;;;;;;;25.98;23.77;;;;;;;;;;5048827;28;20032;-53
2024/02/18 11:49:04;;;;;;;25.77;23.58;;;;;;;;;;5048321;28;20052;-50
2024/02/18 11:51:30;;;;;;;25.80;23.60;;;;;;;;;;5048935;28;20025;-53
2024/02/18 11:53:57;;;;;;;28.58;26.27;;;;;;;;;;5048739;28;20036;-52
2024/02/18 11:56:23;;;;;;;27.63;25.42;;;;;;;;;;5048907;28;20114;-52
2024/02/18 11:58:50;;;;;;;26.92;24.73;;;;;;;;;;5048817;28;20033;-56
2024/02/18 12:01:19;;;;;;;25.92;23.73;;;;;;;;;;5048772;28;20092;-52
2024/02/18 12:03:45;;;;;;;;;;;;;;;;;;5049446;28;20453;-49
2024/02/18 12:06:11;;;;;;;26.52;24.33;;;;;;;;;;5047337;28;20159;-51
2024/02/18 12:08:37;;;;;;;25.98;23.77;;;;;;;;;;5048891;28;20107;-51
2024/02/18 12:11:03;;;;;;;26.23;24.02;;;;;;;;;;5048508;28;20437;-52
2024/02/18 12:13:30;;;;;;;26.15;23.95;;;;;;;;;;5048713;28;20391;-51
2024/02/18 12:15:59;;;;;;;26.08;23.88;;;;;;;;;;5048726;28;20513;-53
2024/02/18 12:18:27;;;;;;;25.15;23.05;;;;;;;;;;5048339;28;20117;-52
2024/02/18 12:20:53;;;;;;;26.50;24.30;;;;;;;;;;5048279;28;20044;-56
2024/02/18 12:23:20;;;;;;;26.30;24.10;;;;;;;;;;5039961;28;20021;-55
2024/02/18 12:25:46;;;;;;;25.55;23.45;;;;;;;;;;5045537;28;20402;-56
2024/02/18 12:28:12;;;;;;;26.23;24.02;;;;;;;;;;5037362;28;20027;-54
2024/02/18 12:30:39;;;;;;;26.15;23.95;;;;;;;;;;5029108;28;20029;-48
2024/02/18 12:33:05;;;;;;;25.83;23.63;;;;;;;;;;5029196;28;20276;-52
2024/02/18 12:35:32;;;;;;;24.77;22.67;;;;;;;;;;5040622;28;20290;-54
2024/02/18 12:37:59;;;;;;;25.42;23.23;;;;;;;;;;5048586;28;20044;-47
2024/02/18 12:40:25;;;;;;;25.00;22.90;;;;;;;;;;5047205;28;20139;-55
2024/02/18 12:42:51;;;;;;;25.60;23.50;;;;;;;;;;5028646;28;20097;-53
2024/02/18 12:45:20;;;;;;;25.90;23.80;;;;;;;;;;5028494;28;20022;-50
2024/02/18 12:47:48;;;;;;;25.33;23.23;;;;;;;;;;5047109;23;20048;-49
2024/02/18 12:50:14;;;;;;;24.33;22.23;;;;;;;;;;5010279;28;20129;-45
2024/02/18 12:52:41;;;;;;;24.23;22.13;;;;;;;;;;5013595;28;20030;-50
2024/02/18 12:55:07;;;;;;;25.00;22.90;;;;;;;;;;5012729;28;20057;-53
2024/02/18 12:57:34;;;;;;;24.10;22.00;;;;;;;;;;5013808;28;20022;-50
2024/02/18 13:00:00;;;;;;;23.58;21.58;;;;;;;;;;5013858;28;20296;-48
2024/02/18 13:02:26;;;;;;;25.00;22.90;;;;;;;;;;5011186;28;20053;-52
2024/02/18 13:04:53;;;;;;;26.08;23.88;;;;;;;;;;5019327;28;20109;-51
2024/02/18 13:07:26;;;;;;;26.42;24.23;;;;;;;;;;5013875;28;20069;-50
2024/02/18 13:09:53;;;;;;;24.08;22.08;;;;;;;;;;5010884;28;20117;-48
2024/02/18 13:12:19;;;;;;;26.45;24.15;;;;;;;;;;5011617;28;20018;-49
2024/02/18 13:14:45;;;;;;;23.58;21.58;;;;;;;;;;5011832;28;20095;-49
2024/02/18 13:17:11;;;;;;;23.67;21.67;;;;;;;;;;5011516;28;20420;-51
2024/02/18 13:19:44;;;;;;;23.98;21.98;;;;;;;;;;5011457;28;20105;-48
2024/02/18 13:22:11;;;;;;;23.50;21.50;;;;;;;;;;5012210;28;20550;-53
2024/02/18 13:24:37;;;;;;;23.80;21.80;;;;;;;;;;5013117;28;20048;-52
2024/02/18 13:27:03;;;;;;;23.83;21.83;;;;;;;;;;5013142;28;20034;-48
2024/02/18 13:29:29;;;;;;;23.30;21.30;;;;;;;;;;5012934;28;20045;-52
2024/02/18 13:31:55;;;;;;;24.08;22.08;;;;;;;;;;5010795;28;20025;-53
2024/02/18 13:34:25;;;;;;;25.40;23.15;;;;;;;;;;5013140;28;20026;-54
2024/02/18 13:36:51;;;;;;;25.27;23.17;;;;;;;;;;5013312;28;20575;-51
2024/02/18 13:39:18;;;;;;;24.27;22.27;;;;;;;;;;5012757;28;20105;-51
2024/02/18 13:41:44;;;;;;;24.05;22.05;;;;;;;;;;5011479;28;20032;-50
2024/02/18 13:44:10;;;;;;;31.08;28.50;;;;;;;;;;5012727;28;20033;-50
2024/02/18 13:46:37;;;;;;;23.75;21.75;;;;;;;;;;5012821;28;20030;-50
2024/02/18 13:49:03;;;;;;;24.30;22.30;;;;;;;;;;5012792;28;20083;-47
2024/02/18 13:51:29;;;;;;;23.90;21.90;;;;;;;;;;5012634;28;20121;-52
2024/02/18 13:53:56;;;;;;;24.15;22.15;;;;;;;;;;5012842;28;20033;-48
2024/02/18 13:56:22;;;;;;;24.10;22.10;;;;;;;;;;5013172;28;20022;-53
2024/02/18 13:58:48;;;;;;;24.60;22.50;;;;;;;;;;5011256;28;20510;-53
2024/02/18 14:01:14;;;;;;;23.92;21.92;;;;;;;;;;5012473;28;20033;-50
2024/02/18 14:03:40;;;;;;;25.88;23.77;;;;;;;;;;5012258;28;20125;-47
2024/02/18 14:06:07;;;;;;;25.58;23.48;;;;;;;;;;5012800;28;20395;-48
2024/02/18 14:08:33;;;;;;;25.10;23.00;;;;;;;;;;5012786;28;20037;-50
2024/02/18 14:10:59;;;;;;;24.50;22.40;;;;;;;;;;5012469;28;20026;-51
2024/02/18 14:13:27;;;;;;;24.95;22.85;;;;;;;;;;5012371;28;20030;-47
2024/02/18 14:15:53;;;;;;;28.20;25.90;;;;;;;;;;5012112;28;20506;-49
2024/02/18 14:18:22;;;;;;;25.65;23.45;;;;;;;;;;5012135;28;20080;-49
2024/02/18 14:20:48;;;;;;;26.27;24.08;;;;;;;;;;5012397;28;20045;-50